createdAt,value
2018-04-30T00:00:19.134Z,96063.70
2018-04-30T00:01:21.973Z,96086.91
2018-04-30T00:02:25.111Z,96090.02
2018-04-30T00:03:27.901Z,96040.14
2018-04-30T00:04:30.666Z,96049.00
2018-04-30T00:05:33.445Z,96051.22
2018-04-30T00:06:36.202Z,96060.16
2018-04-30T00:07:38.967Z,96087.91
2018-04-30T00:08:42.055Z,96112.50
2018-04-30T00:09:44.785Z,96087.02
2018-04-30T00:10:47.555Z,96105.13
2018-04-30T00:11:50.325Z,96119.98
2018-04-30T00:12:53.094Z,96120.02
2018-04-30T00:13:55.844Z,96119.08
2018-04-30T00:14:58.924Z,96116.94
2018-04-30T00:16:01.615Z,96115.09
2018-04-30T00:17:04.438Z,96107.55
2018-04-30T00:18:07.229Z,96102.62
2018-04-30T00:19:09.992Z,96110.00
2018-04-30T00:20:12.748Z,96106.63
2018-04-30T00:21:15.949Z,96099.89
2018-04-30T00:22:18.715Z,96105.59
2018-04-30T00:23:21.469Z,96104.67
2018-04-30T00:24:24.278Z,96107.55
2018-04-30T00:25:27.044Z,96098.80
2018-04-30T00:26:29.794Z,96109.54
2018-04-30T00:27:33.044Z,96100.23
2018-04-30T00:28:35.790Z,96093.47
2018-04-30T00:29:38.588Z,96093.56
2018-04-30T00:30:41.399Z,96096.81
2018-04-30T00:31:44.114Z,96088.00
2018-04-30T00:32:46.850Z,96091.14
2018-04-30T00:33:49.989Z,96089.63
2018-04-30T00:34:52.739Z,96087.75
2018-04-30T00:35:55.447Z,96088.27
2018-04-30T00:36:58.183Z,96093.20
2018-04-30T00:38:00.865Z,96102.99
2018-04-30T00:39:03.676Z,96094.99
2018-04-30T00:40:06.850Z,96102.20
2018-04-30T00:41:09.595Z,96101.41
2018-04-30T00:42:12.393Z,96100.17
2018-04-30T00:43:15.167Z,96100.88
2018-04-30T00:44:17.935Z,96101.52
2018-04-30T00:45:20.698Z,96097.87
2018-04-30T00:46:23.948Z,96093.92
2018-04-30T00:47:26.616Z,96095.12
2018-04-30T00:48:29.390Z,96090.72
2018-04-30T00:49:32.147Z,96091.20
2018-04-30T00:50:34.921Z,96090.81
2018-04-30T00:51:37.679Z,96097.23
2018-04-30T00:52:40.926Z,96101.55
2018-04-30T00:53:43.726Z,96086.88
2018-04-30T00:54:46.481Z,96098.80
2018-04-30T00:55:49.235Z,96096.61
2018-04-30T00:56:51.988Z,96099.93
2018-04-30T00:57:54.908Z,96087.18
2018-04-30T00:58:57.963Z,96091.45
2018-04-30T01:00:00.712Z,96092.02
2018-04-30T01:01:03.454Z,96085.02
2018-04-30T01:02:06.706Z,96088.67
2018-04-30T01:03:09.477Z,96089.45
2018-04-30T01:04:12.256Z,96093.92
2018-04-30T01:05:15.429Z,96090.08
2018-04-30T01:06:18.183Z,96091.58
2018-04-30T01:07:20.960Z,96093.77
2018-04-30T01:08:23.767Z,96101.53
2018-04-30T01:09:26.512Z,96109.89
2018-04-30T01:10:29.291Z,96118.17
2018-04-30T01:11:32.490Z,96120.95
2018-04-30T01:12:35.247Z,96123.20
2018-04-30T01:13:38.030Z,96125.95
2018-04-30T01:14:41.261Z,96123.38
2018-04-30T01:15:44.003Z,96129.72
2018-04-30T01:16:46.798Z,96124.12
2018-04-30T01:17:49.878Z,96133.27
2018-04-30T01:18:52.644Z,96128.20
2018-04-30T01:19:55.423Z,96120.08
2018-04-30T01:20:58.186Z,96115.28
2018-04-30T01:22:00.996Z,96127.05
2018-04-30T01:23:03.768Z,96125.38
2018-04-30T01:24:06.936Z,96124.40
2018-04-30T01:25:09.708Z,96134.80
2018-04-30T01:26:12.440Z,96142.70
2018-04-30T01:27:15.181Z,96138.03
2018-04-30T01:28:17.911Z,96152.70
2018-04-30T01:29:20.758Z,96154.33
2018-04-30T01:30:23.925Z,96150.98
2018-04-30T01:31:26.714Z,96148.36
2018-04-30T01:32:29.484Z,96140.59
2018-04-30T01:33:32.298Z,96148.36
2018-04-30T01:34:35.062Z,96152.39
2018-04-30T01:35:37.826Z,96146.73
2018-04-30T01:36:41.030Z,96143.98
2018-04-30T01:37:44.488Z,96147.52
2018-04-30T01:38:47.204Z,96154.27
2018-04-30T01:39:49.936Z,96161.03
2018-04-30T01:40:52.682Z,96164.78
2018-04-30T01:41:55.461Z,96167.80
2018-04-30T01:42:58.694Z,96166.39
2018-04-30T01:44:01.431Z,96164.47
2018-04-30T01:45:04.203Z,96161.97
2018-04-30T01:46:06.958Z,96157.88
2018-04-30T01:47:09.757Z,96169.30
2018-04-30T01:48:12.623Z,96160.78
2018-04-30T01:49:15.672Z,96163.41
2018-04-30T01:50:18.430Z,96168.70
2018-04-30T01:51:21.185Z,96163.06
2018-04-30T01:52:24.032Z,96166.56
2018-04-30T01:53:26.823Z,96171.06
2018-04-30T01:54:29.646Z,96155.45
2018-04-30T01:55:32.773Z,96162.81
2018-04-30T01:56:35.535Z,96165.08
2018-04-30T01:57:38.285Z,96161.95
2018-04-30T01:58:40.995Z,96168.07
2018-04-30T01:59:43.757Z,96169.83
2018-04-30T02:00:46.468Z,96160.20
2018-04-30T02:01:49.566Z,96175.33
2018-04-30T02:02:52.402Z,96156.45
2018-04-30T02:03:55.157Z,96170.46
2018-04-30T02:04:57.912Z,96173.95
2018-04-30T02:06:00.703Z,96182.70
2018-04-30T02:07:03.496Z,96168.08
2018-04-30T02:08:06.580Z,96170.47
2018-04-30T02:09:09.327Z,96173.82
2018-04-30T02:10:11.994Z,96171.31
2018-04-30T02:11:14.779Z,96193.35
2018-04-30T02:12:17.519Z,96171.70
2018-04-30T02:13:20.295Z,96176.47
2018-04-30T02:14:23.390Z,96180.33
2018-04-30T02:15:26.129Z,96173.97
2018-04-30T02:16:28.854Z,96173.20
2018-04-30T02:17:31.654Z,96155.06
2018-04-30T02:18:34.401Z,96157.81
2018-04-30T02:19:37.132Z,96160.33
2018-04-30T02:20:40.285Z,96169.56
2018-04-30T02:21:43.132Z,96167.81
2018-04-30T02:22:45.866Z,96157.94
2018-04-30T02:23:48.578Z,96149.67
2018-04-30T02:24:51.263Z,96152.80
2018-04-30T02:25:53.975Z,96148.19
2018-04-30T02:26:57.046Z,96161.57
2018-04-30T02:27:59.737Z,96161.42
2018-04-30T02:29:02.433Z,96164.42
2018-04-30T02:30:05.174Z,96175.94
2018-04-30T02:31:07.926Z,96162.80
2018-04-30T02:32:10.725Z,96166.02
2018-04-30T02:33:13.875Z,96167.51
2018-04-30T02:34:16.995Z,96173.05
2018-04-30T02:35:19.746Z,96178.45
2018-04-30T02:36:22.513Z,96178.39
2018-04-30T02:37:25.270Z,96181.58
2018-04-30T02:38:27.996Z,96181.84
2018-04-30T02:39:31.198Z,96184.47
2018-04-30T02:40:33.901Z,96186.23
2018-04-30T02:41:36.617Z,96183.70
2018-04-30T02:42:39.310Z,96191.45
2018-04-30T02:43:42.023Z,96185.45
2018-04-30T02:44:44.709Z,96187.45
2018-04-30T02:45:47.719Z,96193.70
2018-04-30T02:46:50.506Z,96188.81
2018-04-30T02:47:53.278Z,96195.08
2018-04-30T02:48:55.998Z,96202.08
2018-04-30T02:49:58.756Z,96202.20
2018-04-30T02:51:02.242Z,96199.95
2018-04-30T02:52:05.414Z,96203.92
2018-04-30T02:53:08.192Z,96207.80
2018-04-30T02:54:11.009Z,96205.02
2018-04-30T02:55:13.763Z,96196.73
2018-04-30T02:56:16.560Z,96187.80
2018-04-30T02:57:19.320Z,96198.23
2018-04-30T02:58:22.457Z,96185.25
2018-04-30T02:59:26.002Z,96181.34
2018-04-30T03:00:28.741Z,96195.52
2018-04-30T03:01:31.497Z,96189.08
2018-04-30T03:02:34.237Z,96201.05
2018-04-30T03:03:36.993Z,96219.59
2018-04-30T03:04:40.095Z,96191.86
2018-04-30T03:05:42.833Z,96203.73
2018-04-30T03:06:45.614Z,96207.73
2018-04-30T03:07:48.354Z,96208.51
2018-04-30T03:08:51.166Z,96211.20
2018-04-30T03:09:54.003Z,96206.45
2018-04-30T03:10:57.216Z,96216.80
2018-04-30T03:12:00.027Z,96220.45
2018-04-30T03:13:02.793Z,96228.48
2018-04-30T03:14:05.535Z,96228.75
2018-04-30T03:15:08.276Z,96233.17
2018-04-30T03:16:11.003Z,96234.07
2018-04-30T03:17:14.118Z,96228.55
2018-04-30T03:18:16.863Z,96246.41
2018-04-30T03:19:19.622Z,96239.17
2018-04-30T03:20:22.398Z,96233.52
2018-04-30T03:21:25.182Z,96236.91
2018-04-30T03:22:27.963Z,96231.50
2018-04-30T03:23:31.185Z,96242.11
2018-04-30T03:24:33.934Z,96237.88
2018-04-30T03:25:36.696Z,96250.09
2018-04-30T03:26:39.444Z,96255.52
2018-04-30T03:27:42.239Z,96268.39
2018-04-30T03:28:44.973Z,96266.63
2018-04-30T03:29:47.736Z,96266.75
2018-04-30T03:30:50.539Z,96252.26
2018-04-30T03:31:53.353Z,96254.90
2018-04-30T03:32:56.103Z,96262.66
2018-04-30T03:33:58.976Z,96275.42
2018-04-30T03:35:01.787Z,96265.14
2018-04-30T03:36:04.526Z,96260.05
2018-04-30T03:37:07.292Z,96262.33
2018-04-30T03:38:10.044Z,96259.55
2018-04-30T03:39:12.797Z,96254.16
2018-04-30T03:40:15.544Z,96259.15
2018-04-30T03:41:18.686Z,96258.11
2018-04-30T03:42:21.455Z,96263.16
2018-04-30T03:43:24.210Z,96252.89
2018-04-30T03:44:26.962Z,96278.55
2018-04-30T03:45:29.768Z,96275.38
2018-04-30T03:46:32.522Z,96279.13
2018-04-30T03:47:35.308Z,96239.95
2018-04-30T03:48:38.103Z,96280.02
2018-04-30T03:49:40.897Z,96294.48
2018-04-30T03:50:43.582Z,96227.48
2018-04-30T03:51:46.318Z,96278.12
2018-04-30T03:52:49.377Z,96280.59
2018-04-30T03:53:52.133Z,96266.81
2018-04-30T03:54:54.864Z,96265.61
2018-04-30T03:55:57.663Z,96282.17
2018-04-30T03:57:00.324Z,96289.06
2018-04-30T03:58:03.025Z,96268.22
2018-04-30T03:59:06.351Z,96260.80
2018-04-30T04:00:09.086Z,96302.88
2018-04-30T04:01:11.873Z,96300.34
2018-04-30T04:02:14.623Z,96285.91
2018-04-30T04:03:17.361Z,96298.91
2018-04-30T04:04:20.102Z,96292.43
2018-04-30T04:05:23.325Z,96308.28
2018-04-30T04:06:26.103Z,96290.73
2018-04-30T04:07:28.881Z,96284.44
2018-04-30T04:08:31.694Z,96272.14
2018-04-30T04:09:34.437Z,96286.06
2018-04-30T04:10:37.223Z,96301.72
2018-04-30T04:11:39.968Z,96291.42
2018-04-30T04:12:42.776Z,96311.69
2018-04-30T04:13:45.520Z,96301.22
2018-04-30T04:14:48.265Z,96292.47
2018-04-30T04:15:51.048Z,96321.92
2018-04-30T04:16:54.237Z,96304.30
2018-04-30T04:17:56.994Z,96279.01
2018-04-30T04:18:59.700Z,96298.64
2018-04-30T04:20:02.454Z,96312.73
2018-04-30T04:21:05.153Z,96304.61
2018-04-30T04:22:07.896Z,96316.67
2018-04-30T04:23:10.669Z,96314.01
2018-04-30T04:24:13.443Z,96287.73
2018-04-30T04:25:16.223Z,96316.61
2018-04-30T04:26:18.987Z,96314.17
2018-04-30T04:27:21.761Z,96317.59
2018-04-30T04:28:24.499Z,96322.30
2018-04-30T04:29:27.682Z,96323.50
2018-04-30T04:30:30.494Z,96322.71
2018-04-30T04:31:33.336Z,96318.86
2018-04-30T04:32:36.098Z,96317.59
2018-04-30T04:33:38.903Z,96320.17
2018-04-30T04:34:41.655Z,96291.19
2018-04-30T04:35:44.807Z,96310.27
2018-04-30T04:36:47.548Z,96304.13
2018-04-30T04:37:50.324Z,96297.23
2018-04-30T04:38:53.100Z,96306.63
2018-04-30T04:39:55.842Z,96312.06
2018-04-30T04:40:58.596Z,96296.97
2018-04-30T04:42:02.794Z,96312.98
2018-04-30T04:43:05.520Z,96311.98
2018-04-30T04:44:08.241Z,96314.70
2018-04-30T04:45:10.968Z,96316.96
2018-04-30T04:46:13.660Z,96319.16
2018-04-30T04:47:16.374Z,96336.27
2018-04-30T04:48:19.474Z,96348.69
2018-04-30T04:49:22.214Z,96330.78
2018-04-30T04:50:24.948Z,96310.06
2018-04-30T04:51:27.701Z,96344.88
2018-04-30T04:52:30.441Z,96343.06
2018-04-30T04:53:33.222Z,96347.18
2018-04-30T04:54:36.281Z,96338.19
2018-04-30T04:55:39.005Z,96349.44
2018-04-30T04:56:41.770Z,96345.25
2018-04-30T04:57:44.526Z,96352.47
2018-04-30T04:58:47.278Z,96352.66
2018-04-30T04:59:50.047Z,96351.80
2018-04-30T05:00:53.106Z,96344.64
2018-04-30T05:01:55.862Z,96361.89
2018-04-30T05:02:58.687Z,96356.70
2018-04-30T05:04:01.442Z,96369.15
2018-04-30T05:05:04.194Z,96360.14
2018-04-30T05:06:06.962Z,96364.46
2018-04-30T05:07:10.131Z,96355.41
2018-04-30T05:08:12.883Z,96391.91
2018-04-30T05:09:15.666Z,96356.41
2018-04-30T05:10:18.376Z,96346.56
2018-04-30T05:11:21.081Z,96365.31
2018-04-30T05:12:23.813Z,96353.38
2018-04-30T05:13:26.905Z,96373.37
2018-04-30T05:14:29.590Z,96313.22
2018-04-30T05:15:32.276Z,96357.87
2018-04-30T05:16:35.000Z,96367.89
2018-04-30T05:17:37.703Z,96353.04
2018-04-30T05:18:40.492Z,96364.33
2018-04-30T05:19:43.618Z,96367.79
2018-04-30T05:20:46.634Z,96396.87
2018-04-30T05:21:49.404Z,96399.29
2018-04-30T05:22:52.734Z,96398.34
2018-04-30T05:23:55.597Z,96388.87
2018-04-30T05:24:58.485Z,96388.02
2018-04-30T05:26:01.636Z,96346.79
2018-04-30T05:27:04.391Z,96378.95
2018-04-30T05:28:07.165Z,96364.96
2018-04-30T05:29:09.940Z,96379.51
2018-04-30T05:30:12.775Z,96388.57
2018-04-30T05:31:15.534Z,96370.33
2018-04-30T05:32:18.693Z,96353.38
2018-04-30T05:33:21.537Z,96380.36
2018-04-30T05:34:24.303Z,96357.56
2018-04-30T05:35:27.044Z,96377.20
2018-04-30T05:36:29.790Z,96373.98
2018-04-30T05:37:32.513Z,96385.89
2018-04-30T05:38:35.822Z,96384.66
2018-04-30T05:39:38.668Z,96370.70
2018-04-30T05:40:41.388Z,96408.22
2018-04-30T05:41:44.245Z,96399.75
2018-04-30T05:42:47.009Z,96385.89
2018-04-30T05:43:49.754Z,96381.16
2018-04-30T05:44:52.980Z,96393.47
2018-04-30T05:45:55.731Z,96429.27
2018-04-30T05:46:58.574Z,96398.00
2018-04-30T05:48:01.373Z,96384.22
2018-04-30T05:49:04.129Z,96384.70
2018-04-30T05:50:06.904Z,96390.53
2018-04-30T05:51:10.010Z,96397.32
2018-04-30T05:52:12.811Z,96380.78
2018-04-30T05:53:15.683Z,96394.36
2018-04-30T05:54:18.487Z,96381.85
2018-04-30T05:55:21.272Z,96356.33
2018-04-30T05:56:24.046Z,96400.95
2018-04-30T05:57:26.790Z,96415.27
2018-04-30T05:58:29.576Z,96398.08
2018-04-30T05:59:32.248Z,96404.45
2018-04-30T06:00:34.974Z,96415.13
2018-04-30T06:01:37.687Z,96398.91
2018-04-30T06:02:40.446Z,96417.58
2018-04-30T06:03:43.633Z,96406.34
2018-04-30T06:04:46.366Z,96413.27
2018-04-30T06:05:49.044Z,96411.34
2018-04-30T06:06:51.800Z,96425.16
2018-04-30T06:07:54.572Z,96408.70
2018-04-30T06:08:57.321Z,96416.27
2018-04-30T06:10:00.319Z,96414.09
2018-04-30T06:11:03.038Z,96409.75
2018-04-30T06:12:05.770Z,96408.85
2018-04-30T06:13:08.511Z,96411.70
2018-04-30T06:14:11.267Z,96398.70
2018-04-30T06:15:14.043Z,96412.83
2018-04-30T06:16:17.279Z,96418.06
2018-04-30T06:17:20.014Z,96417.83
2018-04-30T06:18:22.820Z,96422.57
2018-04-30T06:19:25.605Z,96418.17
2018-04-30T06:20:28.373Z,96416.91
2018-04-30T06:21:31.161Z,96414.83
2018-04-30T06:22:34.262Z,96421.64
2018-04-30T06:23:37.007Z,96399.94
2018-04-30T06:24:39.744Z,96430.11
2018-04-30T06:25:42.506Z,96414.83
2018-04-30T06:26:45.455Z,96408.21
2018-04-30T06:27:48.186Z,96401.70
2018-04-30T06:28:51.277Z,96419.00
2018-04-30T06:29:54.162Z,96432.67
2018-04-30T06:30:56.920Z,96414.66
2018-04-30T06:31:59.709Z,96403.82
2018-04-30T06:33:02.442Z,96420.23
2018-04-30T06:34:05.226Z,96417.48
2018-04-30T06:35:08.366Z,96424.01
2018-04-30T06:36:11.137Z,96408.41
2018-04-30T06:37:13.888Z,96394.56
2018-04-30T06:38:16.624Z,96411.77
2018-04-30T06:39:19.292Z,96413.42
2018-04-30T06:40:21.947Z,96417.53
2018-04-30T06:41:25.046Z,96429.55
2018-04-30T06:42:27.734Z,96419.48
2018-04-30T06:43:30.456Z,96432.86
2018-04-30T06:44:33.329Z,96435.02
2018-04-30T06:45:35.961Z,96406.48
2018-04-30T06:46:38.608Z,96450.60
2018-04-30T06:47:42.204Z,96412.59
2018-04-30T06:48:44.952Z,96438.17
2018-04-30T06:49:47.711Z,96402.08
2018-04-30T06:50:50.466Z,96401.16
2018-04-30T06:51:53.270Z,96418.23
2018-04-30T06:52:56.035Z,96441.34
2018-04-30T06:53:59.236Z,96405.98
2018-04-30T06:55:02.012Z,96439.57
2018-04-30T06:56:04.777Z,96445.02
2018-04-30T06:57:07.582Z,96442.36
2018-04-30T06:58:10.400Z,96462.44
2018-04-30T06:59:13.182Z,96446.61
2018-04-30T07:00:16.297Z,96445.95
2018-04-30T07:01:19.130Z,96405.18
2018-04-30T07:02:21.891Z,96419.89
2018-04-30T07:03:24.744Z,96461.40
2018-04-30T07:04:27.547Z,96450.78
2018-04-30T07:05:30.249Z,96464.81
2018-04-30T07:06:33.268Z,96477.55
2018-04-30T07:07:36.050Z,96477.69
2018-04-30T07:08:38.803Z,96372.53
2018-04-30T07:09:41.741Z,96486.72
2018-04-30T07:10:44.428Z,96455.79
2018-04-30T07:11:47.086Z,96473.28
2018-04-30T07:12:50.308Z,96457.84
2018-04-30T07:13:53.237Z,96398.71
2018-04-30T07:14:56.020Z,96487.66
2018-04-30T07:15:58.802Z,96462.53
2018-04-30T07:17:01.593Z,96454.99
2018-04-30T07:18:04.424Z,96466.56
2018-04-30T07:19:07.643Z,96465.41
2018-04-30T07:20:10.434Z,96489.30
2018-04-30T07:21:13.201Z,96524.58
2018-04-30T07:22:15.940Z,96478.56
2018-04-30T07:23:18.672Z,96475.41
2018-04-30T07:24:21.506Z,96434.25
2018-04-30T07:25:24.648Z,96472.05
2018-04-30T07:26:27.460Z,96488.68
2018-04-30T07:27:30.222Z,96502.70
2018-04-30T07:28:32.974Z,96458.19
2018-04-30T07:29:35.758Z,96504.38
2018-04-30T07:30:38.534Z,96469.23
2018-04-30T07:31:42.630Z,96501.95
2018-04-30T07:32:45.435Z,96476.77
2018-04-30T07:33:48.173Z,96493.70
2018-04-30T07:34:50.918Z,96429.45
2018-04-30T07:35:53.675Z,96484.81
2018-04-30T07:36:56.479Z,96507.92
2018-04-30T07:37:59.758Z,96460.17
2018-04-30T07:39:02.578Z,96447.41
2018-04-30T07:40:05.377Z,96463.70
2018-04-30T07:41:08.146Z,96445.48
2018-04-30T07:42:10.932Z,96484.47
2018-04-30T07:43:13.765Z,96471.05
2018-04-30T07:44:16.980Z,96483.77
2018-04-30T07:45:19.747Z,96501.11
2018-04-30T07:46:22.576Z,96494.16
2018-04-30T07:47:25.431Z,96490.41
2018-04-30T07:48:28.231Z,96485.17
2018-04-30T07:49:31.070Z,96472.40
2018-04-30T07:50:34.314Z,96509.73
2018-04-30T07:51:37.491Z,96478.28
2018-04-30T07:52:40.259Z,96498.41
2018-04-30T07:53:43.042Z,96515.38
2018-04-30T07:54:45.806Z,96509.10
2018-04-30T07:55:48.578Z,96501.94
2018-04-30T07:56:51.758Z,96517.47
2018-04-30T07:57:54.543Z,96521.38
2018-04-30T07:58:57.339Z,96557.50
2018-04-30T08:00:00.084Z,96535.78
2018-04-30T08:01:02.852Z,96509.50
2018-04-30T08:02:05.643Z,96516.20
2018-04-30T08:03:08.901Z,96524.42
2018-04-30T08:04:11.696Z,96512.42
2018-04-30T08:05:14.516Z,96525.75
2018-04-30T08:06:17.860Z,96530.81
2018-04-30T08:07:20.643Z,96524.20
2018-04-30T08:08:23.470Z,96529.73
2018-04-30T08:09:26.604Z,96526.45
2018-04-30T08:10:29.423Z,96514.05
2018-04-30T08:11:32.301Z,96522.55
2018-04-30T08:12:35.069Z,96544.29
2018-04-30T08:13:37.840Z,96529.65
2018-04-30T08:14:40.602Z,96537.34
2018-04-30T08:15:43.838Z,96508.33
2018-04-30T08:16:46.572Z,96559.41
2018-04-30T08:17:49.262Z,96549.59
2018-04-30T08:18:52.066Z,96550.37
2018-04-30T08:19:54.953Z,96571.02
2018-04-30T08:20:58.068Z,96552.64
2018-04-30T08:22:01.353Z,96532.13
2018-04-30T08:23:04.038Z,96537.94
2018-04-30T08:24:06.822Z,96545.32
2018-04-30T08:25:09.565Z,96545.48
2018-04-30T08:26:12.343Z,96551.40
2018-04-30T08:27:15.130Z,96562.22
2018-04-30T08:28:18.339Z,96559.64
2018-04-30T08:29:21.140Z,96551.89
2018-04-30T08:30:23.926Z,96554.82
2018-04-30T08:31:26.682Z,96548.11
2018-04-30T08:32:29.483Z,96566.78
2018-04-30T08:33:32.336Z,96574.33
2018-04-30T08:34:35.600Z,96556.00
2018-04-30T08:35:38.412Z,96557.59
2018-04-30T08:36:41.380Z,96568.94
2018-04-30T08:37:44.113Z,96556.03
2018-04-30T08:38:46.941Z,96555.13
2018-04-30T08:39:50.005Z,96539.94
2018-04-30T08:40:53.228Z,96556.98
2018-04-30T08:41:56.089Z,96501.48
2018-04-30T08:42:58.821Z,96514.73
2018-04-30T08:44:01.601Z,96532.55
2018-04-30T08:45:04.397Z,96521.31
2018-04-30T08:46:07.184Z,96528.97
2018-04-30T08:47:10.355Z,96556.05
2018-04-30T08:48:13.134Z,96521.08
2018-04-30T08:49:15.896Z,96511.39
2018-04-30T08:50:18.682Z,96535.06
2018-04-30T08:51:21.461Z,96534.77
2018-04-30T08:52:24.215Z,96546.30
2018-04-30T08:53:27.365Z,96528.52
2018-04-30T08:54:30.192Z,96530.78
2018-04-30T08:55:32.998Z,96524.31
2018-04-30T08:56:35.776Z,96535.91
2018-04-30T08:57:38.583Z,96506.98
2018-04-30T08:58:41.334Z,96520.00
2018-04-30T08:59:44.754Z,96521.18
2018-04-30T09:00:47.533Z,96520.48
2018-04-30T09:01:50.295Z,96539.78
2018-04-30T09:02:53.064Z,96544.06
2018-04-30T09:03:55.856Z,96562.55
2018-04-30T09:04:58.615Z,96551.59
2018-04-30T09:06:01.807Z,96556.71
2018-04-30T09:07:04.563Z,96551.38
2018-04-30T09:08:07.353Z,96570.22
2018-04-30T09:09:10.185Z,96568.05
2018-04-30T09:10:13.134Z,96567.27
2018-04-30T09:11:16.059Z,96590.53
2018-04-30T09:12:19.210Z,96597.96
2018-04-30T09:13:21.976Z,96582.56
2018-04-30T09:14:24.754Z,96601.93
2018-04-30T09:15:27.454Z,96591.25
2018-04-30T09:16:30.243Z,96610.61
2018-04-30T09:17:33.005Z,96619.88
2018-04-30T09:18:36.303Z,96606.56
2018-04-30T09:19:39.074Z,96605.28
2018-04-30T09:20:41.859Z,96602.37
2018-04-30T09:21:44.684Z,96628.49
2018-04-30T09:22:47.456Z,96616.06
2018-04-30T09:23:50.325Z,96620.27
2018-04-30T09:24:53.551Z,96619.50
2018-04-30T09:25:56.408Z,96622.20
2018-04-30T09:26:59.162Z,96616.81
2018-04-30T09:28:02.004Z,96616.05
2018-04-30T09:29:04.798Z,96634.31
2018-04-30T09:30:07.572Z,96630.01
2018-04-30T09:31:10.793Z,96620.85
2018-04-30T09:32:13.601Z,96605.08
2018-04-30T09:33:16.305Z,96609.81
2018-04-30T09:34:19.113Z,96595.75
2018-04-30T09:35:21.793Z,96593.87
2018-04-30T09:36:24.478Z,96608.20
2018-04-30T09:37:27.637Z,96609.15
2018-04-30T09:38:30.409Z,96608.67
2018-04-30T09:39:33.202Z,96628.16
2018-04-30T09:40:36.071Z,96607.21
2018-04-30T09:41:38.805Z,96604.28
2018-04-30T09:42:41.558Z,96588.03
2018-04-30T09:43:44.788Z,96595.39
2018-04-30T09:44:47.539Z,96582.84
2018-04-30T09:45:50.311Z,96598.12
2018-04-30T09:46:53.129Z,96581.16
2018-04-30T09:47:55.894Z,96579.73
2018-04-30T09:48:58.724Z,96561.94
2018-04-30T09:50:02.025Z,96605.71
2018-04-30T09:51:04.810Z,96572.41
2018-04-30T09:52:08.567Z,96559.86
2018-04-30T09:53:11.339Z,96567.28
2018-04-30T09:54:14.116Z,96550.88
2018-04-30T09:55:16.957Z,96542.93
2018-04-30T09:56:20.236Z,96567.29
2018-04-30T09:57:22.995Z,96585.17
2018-04-30T09:58:25.796Z,96599.66
2018-04-30T09:59:28.583Z,96591.19
2018-04-30T10:00:31.343Z,96580.72
2018-04-30T10:01:34.051Z,96573.39
2018-04-30T10:02:37.220Z,96569.75
2018-04-30T10:03:40.011Z,96579.16
2018-04-30T10:04:42.751Z,96596.39
2018-04-30T10:05:45.568Z,96580.30
2018-04-30T10:06:48.510Z,96586.45
2018-04-30T10:07:51.305Z,96582.86
2018-04-30T10:08:54.596Z,96572.69
2018-04-30T10:09:57.419Z,96564.55
2018-04-30T10:11:00.189Z,96577.42
2018-04-30T10:12:02.986Z,96588.34
2018-04-30T10:13:06.361Z,96553.67
2018-04-30T10:14:09.115Z,96598.56
2018-04-30T10:15:12.603Z,96579.11
2018-04-30T10:16:15.399Z,96609.68
2018-04-30T10:17:18.186Z,96594.69
2018-04-30T10:18:20.984Z,96583.66
2018-04-30T10:19:23.692Z,96578.64
2018-04-30T10:20:26.503Z,96587.25
2018-04-30T10:21:29.614Z,96572.83
2018-04-30T10:22:32.464Z,96578.52
2018-04-30T10:23:35.224Z,96579.13
2018-04-30T10:24:37.950Z,96579.83
2018-04-30T10:25:40.707Z,96624.31
2018-04-30T10:26:43.508Z,96584.90
2018-04-30T10:27:46.732Z,96577.48
2018-04-30T10:28:49.533Z,96572.89
2018-04-30T10:29:52.311Z,96599.45
2018-04-30T10:30:55.068Z,96627.13
2018-04-30T10:31:57.912Z,96578.86
2018-04-30T10:33:00.686Z,96598.22
2018-04-30T10:34:03.905Z,96579.81
2018-04-30T10:35:06.708Z,96633.27
2018-04-30T10:36:09.661Z,96592.77
2018-04-30T10:37:12.473Z,96615.48
2018-04-30T10:38:15.280Z,96649.21
2018-04-30T10:39:18.154Z,96614.54
2018-04-30T10:40:21.284Z,96605.00
2018-04-30T10:41:24.046Z,96597.67
2018-04-30T10:42:26.784Z,96605.75
2018-04-30T10:43:29.542Z,96594.69
2018-04-30T10:44:32.299Z,96626.86
2018-04-30T10:45:35.007Z,96605.81
2018-04-30T10:46:38.257Z,96604.44
2018-04-30T10:47:40.959Z,96593.37
2018-04-30T10:48:43.692Z,96593.36
2018-04-30T10:49:46.470Z,96589.38
2018-04-30T10:50:49.250Z,96607.36
2018-04-30T10:51:52.105Z,96581.48
2018-04-30T10:52:55.249Z,96661.27
2018-04-30T10:53:57.975Z,96573.68
2018-04-30T10:55:00.735Z,96597.77
2018-04-30T10:56:03.503Z,96656.11
2018-04-30T10:57:06.464Z,96676.74
2018-04-30T10:58:09.283Z,96615.42
2018-04-30T10:59:12.524Z,96604.48
2018-04-30T11:00:15.294Z,96604.39
2018-04-30T11:01:18.053Z,96586.22
2018-04-30T11:02:20.883Z,96629.45
2018-04-30T11:03:23.670Z,96629.45
2018-04-30T11:04:26.437Z,96631.83
2018-04-30T11:05:29.713Z,96603.11
2018-04-30T11:06:32.474Z,96593.59
2018-04-30T11:07:35.277Z,96617.55
2018-04-30T11:08:38.043Z,96649.53
2018-04-30T11:09:40.851Z,96627.05
2018-04-30T11:10:43.615Z,96626.67
2018-04-30T11:11:46.772Z,96628.09
2018-04-30T11:12:49.594Z,96657.75
2018-04-30T11:13:52.381Z,96613.41
2018-04-30T11:14:55.151Z,96617.95
2018-04-30T11:15:57.919Z,96622.81
2018-04-30T11:17:00.754Z,96629.84
2018-04-30T11:18:03.831Z,96649.50
2018-04-30T11:19:06.623Z,96634.69
2018-04-30T11:20:09.367Z,96652.38
2018-04-30T11:21:12.150Z,96653.32
2018-04-30T11:22:14.978Z,96641.13
2018-04-30T11:23:17.806Z,96632.42
2018-04-30T11:24:21.125Z,96620.98
2018-04-30T11:25:23.869Z,96634.27
2018-04-30T11:26:33.958Z,96629.12
2018-04-30T11:27:43.083Z,96625.44
2018-04-30T11:28:45.871Z,96642.05
2018-04-30T11:29:52.025Z,96636.94
2018-04-30T11:30:55.263Z,96623.55
2018-04-30T11:32:01.092Z,96625.30
2018-04-30T11:33:07.906Z,96627.56
2018-04-30T11:34:10.723Z,96642.52
2018-04-30T11:35:13.867Z,96637.01
2018-04-30T11:36:16.689Z,96626.95
2018-04-30T11:37:20.852Z,96618.29
2018-04-30T11:38:23.653Z,96622.36
2018-04-30T11:39:26.497Z,96635.09
2018-04-30T11:40:31.240Z,96640.50
2018-04-30T11:41:37.511Z,96648.67
2018-04-30T11:42:40.911Z,96627.05
2018-04-30T11:43:43.948Z,96618.48
2018-04-30T11:44:55.056Z,96626.64
2018-04-30T11:45:59.922Z,96619.30
2018-04-30T11:47:06.875Z,96627.48
2018-04-30T11:48:12.458Z,96621.67
2018-04-30T11:49:15.355Z,96623.46
2018-04-30T11:51:40.915Z,96627.56
2018-04-30T11:52:51.657Z,96615.41
2018-04-30T11:54:01.162Z,96625.06
2018-04-30T11:55:04.027Z,96628.39
2018-04-30T11:56:14.641Z,96654.31
2018-04-30T11:57:19.817Z,96646.63
2018-04-30T11:59:36.246Z,96632.44
2018-04-30T12:00:44.459Z,96648.00
2018-04-30T12:01:52.354Z,96623.35
2018-04-30T12:03:02.432Z,96620.52
2018-04-30T12:04:13.960Z,96630.94
2018-04-30T12:06:43.116Z,96633.63
2018-04-30T12:07:47.081Z,96636.47
2018-04-30T12:08:55.497Z,96640.36
2018-04-30T12:09:59.184Z,96646.78
2018-04-30T12:11:03.776Z,96632.17
2018-04-30T12:12:10.898Z,96653.32
2018-04-30T12:13:19.135Z,96641.34
2018-04-30T12:15:40.618Z,96648.92
2018-04-30T12:16:44.798Z,96632.44
2018-04-30T12:17:47.606Z,96636.02
2018-04-30T12:18:56.341Z,96662.08
2018-04-30T12:19:59.178Z,96644.80
2018-04-30T12:21:01.990Z,96666.00
2018-04-30T12:22:08.500Z,96653.48
2018-04-30T12:24:26.963Z,96657.59
2018-04-30T12:25:32.023Z,96658.33
2018-04-30T12:26:39.080Z,96660.38